createdAt,value
2019-05-01T00:01:49.281Z,17.10
2019-05-01T00:04:34.418Z,17.10
2019-05-01T00:07:04.116Z,17.10
2019-05-01T00:09:33.217Z,17.00
2019-05-01T00:12:02.076Z,16.90
2019-05-01T00:14:30.964Z,16.80
2019-05-01T00:17:00.178Z,16.90
2019-05-01T00:19:29.044Z,17.00
2019-05-01T00:21:57.886Z,16.90
2019-05-01T00:24:26.789Z,17.00
2019-05-01T00:26:55.698Z,17.00
2019-05-01T00:29:24.586Z,16.90
2019-05-01T00:31:54.735Z,17.00
2019-05-01T00:34:23.655Z,17.00
2019-05-01T00:36:52.619Z,16.90
2019-05-01T00:39:21.519Z,16.70
2019-05-01T00:41:50.346Z,16.70
2019-05-01T00:44:19.285Z,16.50
2019-05-01T00:46:48.177Z,16.40
2019-05-01T00:49:17.098Z,16.40
2019-05-01T00:51:46.017Z,16.30
2019-05-01T00:54:14.907Z,16.30
2019-05-01T00:56:50.827Z,16.20
2019-05-01T00:59:21.329Z,16.30
2019-05-01T01:01:51.805Z,16.30
2019-05-01T01:04:21.032Z,16.20
2019-05-01T01:06:49.976Z,16.10
2019-05-01T01:09:19.274Z,16.00
2019-05-01T01:11:48.414Z,16.00
2019-05-01T01:14:17.308Z,16.00
2019-05-01T01:16:46.222Z,15.80
2019-05-01T01:19:15.190Z,15.90
2019-05-01T01:21:44.091Z,15.90
2019-05-01T01:24:12.978Z,15.80
2019-05-01T01:26:41.898Z,16.10
2019-05-01T01:29:10.886Z,16.40
2019-05-01T01:31:39.800Z,16.70
2019-05-01T01:34:08.614Z,16.80
2019-05-01T01:36:37.485Z,16.50
2019-05-01T01:39:07.204Z,16.40
2019-05-01T01:41:36.534Z,16.50
2019-05-01T01:44:23.346Z,16.70
2019-05-01T01:46:53.855Z,16.90
2019-05-01T01:49:22.730Z,16.90
2019-05-01T01:51:52.055Z,16.80
2019-05-01T01:54:21.121Z,16.60
2019-05-01T01:56:50.661Z,16.50
2019-05-01T01:59:20.324Z,16.30
2019-05-01T02:01:53.528Z,16.20
2019-05-01T02:04:24.012Z,16.20
2019-05-01T02:06:52.832Z,16.30
2019-05-01T02:09:21.754Z,16.40
2019-05-01T02:11:50.684Z,16.40
2019-05-01T02:14:19.634Z,16.50
2019-05-01T02:16:48.505Z,16.60
2019-05-01T02:19:17.451Z,16.80
2019-05-01T02:21:46.354Z,16.80
2019-05-01T02:24:15.301Z,16.60
2019-05-01T02:26:51.739Z,16.50
2019-05-01T02:29:25.165Z,16.50
2019-05-01T02:31:55.689Z,16.60
2019-05-01T02:34:26.015Z,16.50
2019-05-01T02:36:57.972Z,16.30
2019-05-01T02:39:27.580Z,16.30
2019-05-01T02:41:59.530Z,16.30
2019-05-01T02:44:31.357Z,16.40
2019-05-01T02:47:03.247Z,16.40
2019-05-01T02:49:35.003Z,16.40
2019-05-01T02:52:05.573Z,16.30
2019-05-01T02:54:36.084Z,16.30
2019-05-01T02:57:08.469Z,16.10
2019-05-01T02:59:39.426Z,16.00
2019-05-01T03:02:09.343Z,15.80
2019-05-01T03:04:38.524Z,15.90
2019-05-01T03:07:08.887Z,16.00
2019-05-01T03:09:38.830Z,16.10
2019-05-01T03:12:08.561Z,16.00
2019-05-01T03:14:40.413Z,15.90
2019-05-01T03:17:11.984Z,15.90
2019-05-01T03:19:51.492Z,15.90
2019-05-01T03:22:24.563Z,16.00
2019-05-01T03:24:53.513Z,16.00
2019-05-01T03:27:22.416Z,16.00
2019-05-01T03:29:51.414Z,16.00
2019-05-01T03:32:20.596Z,15.80
2019-05-01T03:34:52.703Z,15.40
2019-05-01T03:37:20.232Z,15.50
2019-05-01T03:39:50.174Z,15.60
2019-05-01T03:42:19.105Z,15.60
2019-05-01T03:44:47.931Z,15.70
2019-05-01T03:47:16.872Z,15.80
2019-05-01T03:49:45.880Z,15.90
2019-05-01T03:52:16.677Z,16.00
2019-05-01T03:54:45.675Z,16.00
2019-05-01T03:57:14.749Z,15.90
2019-05-01T03:59:43.669Z,15.90
2019-05-01T04:02:33.006Z,15.80
2019-05-01T04:04:50.696Z,15.70
2019-05-01T04:07:19.597Z,15.80
2019-05-01T04:09:48.545Z,15.90
2019-05-01T04:12:17.585Z,15.90
2019-05-01T04:14:46.531Z,15.90
2019-05-01T04:17:17.526Z,16.00
2019-05-01T04:19:46.441Z,15.70
2019-05-01T04:22:15.397Z,15.60
2019-05-01T04:24:44.413Z,15.40
2019-05-01T04:27:15.324Z,15.00
2019-05-01T04:29:45.881Z,15.00
2019-05-01T04:32:19.470Z,15.20
2019-05-01T04:34:52.588Z,15.20
2019-05-01T04:37:23.079Z,15.20
2019-05-01T04:39:52.172Z,15.00
2019-05-01T04:42:21.353Z,14.90
2019-05-01T04:44:50.358Z,15.00
2019-05-01T04:47:19.745Z,15.20
2019-05-01T04:49:48.740Z,15.40
2019-05-01T04:52:17.560Z,15.60
2019-05-01T04:54:46.484Z,15.70
2019-05-01T04:57:15.722Z,15.90
2019-05-01T04:59:44.853Z,16.00
2019-05-01T05:02:15.258Z,15.90
2019-05-01T05:04:44.408Z,15.80
2019-05-01T05:07:13.233Z,15.40
2019-05-01T05:09:43.145Z,15.10
2019-05-01T05:12:17.563Z,14.90
2019-05-01T05:14:48.324Z,15.00
2019-05-01T05:17:27.089Z,15.30
2019-05-01T05:19:56.436Z,15.70
2019-05-01T05:22:28.075Z,16.00
2019-05-01T05:24:56.965Z,16.10
2019-05-01T05:27:30.269Z,15.80
2019-05-01T05:29:59.357Z,15.60
2019-05-01T05:32:32.886Z,15.60
2019-05-01T05:35:04.124Z,15.70
2019-05-01T05:37:36.786Z,15.50
2019-05-01T05:40:06.645Z,15.40
2019-05-01T05:42:36.861Z,15.40
2019-05-01T05:45:08.531Z,15.50
2019-05-01T05:47:37.578Z,15.60
2019-05-01T05:50:07.897Z,15.50
2019-05-01T05:52:39.576Z,15.50
2019-05-01T05:55:14.735Z,15.60
2019-05-01T05:57:58.902Z,15.60
2019-05-01T06:00:33.896Z,15.70
2019-05-01T06:03:09.647Z,15.80
2019-05-01T06:05:49.243Z,15.90
2019-05-01T06:08:21.704Z,16.00
2019-05-01T06:10:58.374Z,16.00
2019-05-01T06:13:26.426Z,16.00
2019-05-01T06:16:00.032Z,16.00
2019-05-01T06:18:34.757Z,16.10
2019-05-01T06:21:18.867Z,16.30
2019-05-01T06:23:52.812Z,16.50
2019-05-01T06:26:31.934Z,16.40
2019-05-01T06:29:02.556Z,16.40
2019-05-01T06:31:33.325Z,16.60
2019-05-01T06:34:02.454Z,16.50
2019-05-01T06:36:31.975Z,16.30
2019-05-01T06:39:06.869Z,16.20
2019-05-01T06:41:42.067Z,16.20
2019-05-01T06:44:11.261Z,16.20
2019-05-01T06:46:41.830Z,16.30
2019-05-01T06:49:29.331Z,16.40
2019-05-01T06:52:01.202Z,16.30
2019-05-01T06:54:36.374Z,16.30
2019-05-01T07:00:29.785Z,16.40
2019-05-01T07:03:06.043Z,16.60
2019-05-01T07:05:49.187Z,16.70
2019-05-01T07:08:24.485Z,16.70
2019-05-01T07:10:47.716Z,16.90
2019-05-01T07:13:16.628Z,16.80
2019-05-01T07:15:45.601Z,16.90
2019-05-01T07:18:18.703Z,16.90
2019-05-01T07:20:51.570Z,17.00
2019-05-01T07:23:19.378Z,17.10
2019-05-01T07:25:48.511Z,17.30
2019-05-01T07:28:20.575Z,17.40
2019-05-01T07:30:54.958Z,17.50
2019-05-01T07:33:22.236Z,17.50
2019-05-01T07:35:54.064Z,17.50
2019-05-01T07:38:23.467Z,17.50
2019-05-01T07:40:52.461Z,17.50
2019-05-01T07:43:39.214Z,17.60
2019-05-01T07:46:19.588Z,17.60
2019-05-01T07:48:48.884Z,17.90
2019-05-01T07:51:21.554Z,18.20
2019-05-01T07:53:52.395Z,18.00
2019-05-01T07:56:22.930Z,17.90
2019-05-01T07:58:54.990Z,17.80
2019-05-01T08:01:42.737Z,17.80
2019-05-01T08:04:13.896Z,17.80
2019-05-01T08:06:44.049Z,17.80
2019-05-01T08:09:15.148Z,17.90
2019-05-01T08:11:45.275Z,18.10
2019-05-01T08:14:16.636Z,18.00
2019-05-01T08:16:45.207Z,18.00
2019-05-01T08:19:15.737Z,18.10
2019-05-01T08:21:49.112Z,18.10
2019-05-01T08:24:22.782Z,18.20
2019-05-01T08:26:48.657Z,18.30
2019-05-01T08:29:36.856Z,18.30
2019-05-01T08:32:10.541Z,18.30
2019-05-01T08:34:48.784Z,18.30
2019-05-01T08:37:17.897Z,18.30
2019-05-01T08:40:01.608Z,18.30
2019-05-01T08:42:30.538Z,18.40
2019-05-01T08:45:09.925Z,18.60
2019-05-01T08:47:41.895Z,18.60
2019-05-01T08:50:24.781Z,18.50
2019-05-01T08:52:54.560Z,18.50
2019-05-01T08:55:27.551Z,18.40
2019-05-01T08:58:14.003Z,18.40
2019-05-01T09:00:35.439Z,18.40
2019-05-01T09:03:08.097Z,18.40
2019-05-01T09:09:17.013Z,18.70
2019-05-01T09:11:45.953Z,18.80
2019-05-01T09:17:14.624Z,18.80
2019-05-01T09:19:47.254Z,18.80
2019-05-01T09:21:10.949Z,18.80
2019-05-01T09:22:27.148Z,18.90
2019-05-01T09:25:00.040Z,19.00
2019-05-01T09:28:04.262Z,18.90
2019-05-01T09:30:42.874Z,19.00
2019-05-01T09:33:20.618Z,19.20
2019-05-01T09:36:02.191Z,19.40
2019-05-01T09:38:29.421Z,19.60
2019-05-01T09:41:04.849Z,19.70
2019-05-01T09:43:50.486Z,19.80
2019-05-01T09:46:21.981Z,19.80
2019-05-01T09:48:54.617Z,20.10
2019-05-01T09:51:24.759Z,20.00
2019-05-01T09:57:06.782Z,20.30
2019-05-01T09:59:36.219Z,20.80
2019-05-01T10:02:07.858Z,21.00
2019-05-01T10:07:30.817Z,21.20
2019-05-01T10:10:02.374Z,21.20
2019-05-01T10:12:32.754Z,21.30
2019-05-01T10:15:01.651Z,21.40
2019-05-01T10:17:30.537Z,21.30
2019-05-01T10:19:59.368Z,21.10
2019-05-01T10:22:28.276Z,21.30
2019-05-01T10:24:57.189Z,21.10
2019-05-01T10:27:30.890Z,21.20
2019-05-01T10:30:14.670Z,21.20
2019-05-01T10:32:57.766Z,21.30
2019-05-01T10:35:41.544Z,21.50
2019-05-01T10:37:59.482Z,21.40
2019-05-01T10:40:32.443Z,21.40
2019-05-01T10:42:59.400Z,21.60
2019-05-01T10:45:28.409Z,21.80
2019-05-01T10:47:57.417Z,22.10
2019-05-01T10:50:26.572Z,22.30
2019-05-01T10:52:55.575Z,22.30
2019-05-01T10:55:24.495Z,22.40
2019-05-01T10:57:53.362Z,22.40
2019-05-01T11:00:22.415Z,22.50
2019-05-01T11:02:51.339Z,22.40
2019-05-01T11:05:20.269Z,22.40
2019-05-01T11:07:49.242Z,22.50
2019-05-01T11:10:20.097Z,22.60
2019-05-01T11:12:51.230Z,22.80
2019-05-01T11:15:20.230Z,22.90
2019-05-01T11:17:49.089Z,23.00
2019-05-01T11:20:24.973Z,22.60
2019-05-01T11:22:53.932Z,22.50
2019-05-01T11:25:23.226Z,22.30
2019-05-01T11:27:52.142Z,22.40
2019-05-01T11:30:21.166Z,22.60
2019-05-01T11:32:54.398Z,22.90
2019-05-01T11:35:40.839Z,23.10
2019-05-01T11:38:13.722Z,23.10
2019-05-01T11:40:44.646Z,22.80
2019-05-01T11:43:59.578Z,22.30
2019-05-01T11:46:28.614Z,21.80
2019-05-01T11:48:57.631Z,21.70
2019-05-01T11:51:26.533Z,21.90
2019-05-01T11:53:55.522Z,22.00
2019-05-01T11:56:24.418Z,22.10
2019-05-01T11:58:53.286Z,22.50
2019-05-01T12:01:23.817Z,22.50
2019-05-01T12:03:52.915Z,22.90
2019-05-01T12:06:22.904Z,23.10
2019-05-01T12:08:52.289Z,23.40
2019-05-01T12:11:22.826Z,23.50
2019-05-01T12:13:51.680Z,23.00
2019-05-01T12:16:37.871Z,22.30
2019-05-01T12:19:06.754Z,21.90
2019-05-01T12:21:35.677Z,22.10
2019-05-01T12:24:04.586Z,22.80
2019-05-01T12:26:33.418Z,23.30
2019-05-01T12:29:02.329Z,23.70
2019-05-01T12:31:34.219Z,23.60
2019-05-01T12:34:03.269Z,23.30
2019-05-01T12:36:36.377Z,23.40
2019-05-01T12:39:02.878Z,23.30
2019-05-01T12:41:33.365Z,23.30
2019-05-01T12:44:02.304Z,23.10
2019-05-01T12:46:35.595Z,23.00
2019-05-01T12:49:04.691Z,23.00
2019-05-01T12:51:33.853Z,22.80
2019-05-01T12:54:20.828Z,22.70
2019-05-01T12:56:59.562Z,22.50
2019-05-01T12:59:28.378Z,22.20
2019-05-01T13:01:57.286Z,22.50
2019-05-01T13:04:26.173Z,22.60
2019-05-01T13:06:58.030Z,22.80
2019-05-01T13:09:27.112Z,23.50
2019-05-01T13:11:56.099Z,24.00
2019-05-01T13:14:25.040Z,24.40
2019-05-01T13:16:53.912Z,24.40
2019-05-01T13:19:22.786Z,24.20
2019-05-01T13:21:51.719Z,24.40
2019-05-01T13:24:20.830Z,24.60
2019-05-01T13:26:51.362Z,24.50
2019-05-01T13:29:24.512Z,24.10
2019-05-01T13:32:00.788Z,23.80
2019-05-01T13:34:29.645Z,24.00
2019-05-01T13:37:03.279Z,24.30
2019-05-01T13:39:29.330Z,24.40
2019-05-01T13:41:58.265Z,24.20
2019-05-01T13:44:27.262Z,24.30
2019-05-01T13:46:56.161Z,24.20
2019-05-01T13:49:25.091Z,24.30
2019-05-01T13:51:54.034Z,24.50
2019-05-01T13:54:23.025Z,24.50
2019-05-01T13:56:51.921Z,24.50
2019-05-01T13:59:22.767Z,24.60
2019-05-01T14:01:51.620Z,24.40
2019-05-01T14:04:21.661Z,24.00
2019-05-01T14:06:50.925Z,23.60
2019-05-01T14:09:23.305Z,23.80
2019-05-01T14:11:52.742Z,23.90
2019-05-01T14:14:21.654Z,24.10
2019-05-01T14:16:50.500Z,24.30
2019-05-01T14:19:19.371Z,24.40
2019-05-01T14:21:52.483Z,24.40
2019-05-01T14:24:28.642Z,24.50
2019-05-01T14:26:59.313Z,24.80
2019-05-01T14:29:28.368Z,24.90
2019-05-01T14:31:57.404Z,24.90
2019-05-01T14:34:27.432Z,24.80
2019-05-01T14:36:56.366Z,24.80
2019-05-01T14:39:25.325Z,24.50
2019-05-01T14:41:55.666Z,24.60
2019-05-01T14:44:36.242Z,24.50
2019-05-01T14:46:55.004Z,24.50
2019-05-01T14:49:23.877Z,24.30
2019-05-01T14:51:52.729Z,24.40
2019-05-01T14:54:21.582Z,24.50
2019-05-01T14:56:50.489Z,24.40
2019-05-01T14:59:19.399Z,23.90
2019-05-01T15:01:48.245Z,23.90
2019-05-01T15:04:18.288Z,24.20
2019-05-01T15:06:47.238Z,24.20
2019-05-01T15:09:16.080Z,24.30
2019-05-01T15:11:45.783Z,24.40
2019-05-01T15:14:16.268Z,24.60
2019-05-01T15:16:46.753Z,24.70
2019-05-01T15:19:17.210Z,24.80
2019-05-01T15:21:46.178Z,24.90
2019-05-01T15:24:15.048Z,24.70
2019-05-01T15:26:46.893Z,24.50
2019-05-01T15:29:14.502Z,24.40
2019-05-01T15:31:43.395Z,24.30
2019-05-01T15:34:12.207Z,24.30
2019-05-01T15:36:41.040Z,24.30
2019-05-01T15:39:11.977Z,24.10
2019-05-01T15:41:58.373Z,24.20
2019-05-01T15:44:28.835Z,24.40
2019-05-01T15:46:57.678Z,24.40
2019-05-01T15:49:26.473Z,24.30
2019-05-01T15:51:55.410Z,24.20
2019-05-01T15:54:24.248Z,24.30
2019-05-01T15:56:53.155Z,24.00
2019-05-01T15:59:22.084Z,24.10
2019-05-01T16:01:50.975Z,24.10
2019-05-01T16:04:19.816Z,23.70
2019-05-01T16:06:48.776Z,23.50
2019-05-01T16:09:17.599Z,23.30
2019-05-01T16:12:05.996Z,23.20
2019-05-01T16:14:35.115Z,23.30
2019-05-01T16:17:04.204Z,23.30
2019-05-01T16:19:33.026Z,23.20
2019-05-01T16:22:01.984Z,23.20
2019-05-01T16:24:30.823Z,23.30
2019-05-01T16:26:59.797Z,23.30
2019-05-01T16:29:28.727Z,23.00
2019-05-01T16:31:57.611Z,22.90
2019-05-01T16:34:28.163Z,23.00
2019-05-01T16:36:57.018Z,23.10
2019-05-01T16:39:45.183Z,23.20
2019-05-01T16:42:14.105Z,23.30
2019-05-01T16:44:44.664Z,23.20
2019-05-01T16:47:13.552Z,23.10
2019-05-01T16:49:42.429Z,23.20
2019-05-01T16:52:12.286Z,23.20
2019-05-01T16:54:41.095Z,23.10
2019-05-01T16:57:11.484Z,23.00
2019-05-01T16:59:40.349Z,22.90
2019-05-01T17:02:13.818Z,23.00
2019-05-01T17:04:44.345Z,22.90
2019-05-01T17:07:32.737Z,22.80
2019-05-01T17:10:11.852Z,22.70
2019-05-01T17:12:44.798Z,22.60
2019-05-01T17:15:13.858Z,22.50
2019-05-01T17:17:43.429Z,22.50
2019-05-01T17:20:12.427Z,22.40
2019-05-01T17:22:41.310Z,22.50
2019-05-01T17:25:10.327Z,22.50
2019-05-01T17:27:39.154Z,22.40
2019-05-01T17:30:19.775Z,22.40
2019-05-01T17:32:48.649Z,22.30
2019-05-01T17:35:17.557Z,22.30
2019-05-01T17:37:46.512Z,22.30
2019-05-01T17:40:15.434Z,22.30
2019-05-01T17:42:46.277Z,22.20
2019-05-01T17:45:15.010Z,22.10
2019-05-01T17:47:44.842Z,22.10
2019-05-01T17:50:16.373Z,22.10
2019-05-01T17:52:44.468Z,22.20
2019-05-01T17:55:15.251Z,22.20
2019-05-01T17:57:48.128Z,22.10
2019-05-01T18:00:27.403Z,22.10
2019-05-01T18:02:57.895Z,22.10
2019-05-01T18:05:28.354Z,22.00
2019-05-01T18:07:57.270Z,21.90
2019-05-01T18:10:29.148Z,21.80
2019-05-01T18:13:00.094Z,21.70
2019-05-01T18:15:28.979Z,21.70
2019-05-01T18:17:57.934Z,21.70
2019-05-01T18:20:26.958Z,21.60
2019-05-01T18:23:03.102Z,21.60
2019-05-01T18:25:45.228Z,21.60
2019-05-01T18:28:31.679Z,21.60
2019-05-01T18:31:01.033Z,21.60
2019-05-01T18:33:30.007Z,21.60
2019-05-01T18:35:58.998Z,21.50
2019-05-01T18:38:38.323Z,21.50
2019-05-01T18:41:20.671Z,21.40
2019-05-01T18:43:49.720Z,21.40
2019-05-01T18:46:18.821Z,21.40
2019-05-01T18:48:47.717Z,21.40
2019-05-01T18:51:16.662Z,21.40
2019-05-01T18:53:45.693Z,21.30
2019-05-01T18:56:14.605Z,21.30
2019-05-01T18:58:43.501Z,21.20
2019-05-01T19:01:12.586Z,21.30
2019-05-01T19:03:42.316Z,21.30
2019-05-01T19:06:12.412Z,21.40
2019-05-01T19:08:42.373Z,21.50
2019-05-01T19:11:13.141Z,21.40
2019-05-01T19:13:44.662Z,21.30
2019-05-01T19:16:13.646Z,21.30
2019-05-01T19:18:42.563Z,21.30
2019-05-01T19:21:12.716Z,21.20
2019-05-01T19:23:41.818Z,21.10
2019-05-01T19:26:10.791Z,21.10
2019-05-01T19:28:39.702Z,20.90
2019-05-01T19:31:08.628Z,20.70
2019-05-01T19:33:37.565Z,20.60
2019-05-01T19:36:08.243Z,20.50
2019-05-01T19:38:37.137Z,20.40
2019-05-01T19:41:08.762Z,20.40
2019-05-01T19:43:40.387Z,20.50
2019-05-01T19:46:07.277Z,20.50
2019-05-01T19:48:36.318Z,20.50
2019-05-01T19:51:05.535Z,20.40
2019-05-01T19:53:34.339Z,20.40
2019-05-01T19:56:03.217Z,20.50
2019-05-01T19:58:32.137Z,20.60
2019-05-01T20:01:04.236Z,20.50
2019-05-01T20:03:36.257Z,20.40
2019-05-01T20:06:05.322Z,20.20
2019-05-01T20:08:33.221Z,20.10
2019-05-01T20:11:02.061Z,20.10
2019-05-01T20:13:31.077Z,20.10
2019-05-01T20:16:00.016Z,20.10
2019-05-01T20:18:28.874Z,20.20
2019-05-01T20:20:57.900Z,20.20
2019-05-01T20:23:31.504Z,20.20
2019-05-01T20:25:57.453Z,20.20
2019-05-01T20:28:28.315Z,20.30
2019-05-01T20:30:56.893Z,20.20
2019-05-01T20:33:25.790Z,20.10
2019-05-01T20:35:54.666Z,20.00
2019-05-01T20:38:24.542Z,19.80
2019-05-01T20:40:53.972Z,19.80
2019-05-01T20:43:22.923Z,19.90
2019-05-01T20:45:53.127Z,19.90
2019-05-01T20:48:23.621Z,19.80
2019-05-01T20:50:52.876Z,19.60
2019-05-01T20:53:21.736Z,19.50
2019-05-01T20:55:52.213Z,19.50
2019-05-01T20:58:22.686Z,19.50
2019-05-01T21:00:54.671Z,19.50
2019-05-01T21:03:23.841Z,19.40
2019-05-01T21:05:57.064Z,19.30
2019-05-01T21:08:47.340Z,19.50
2019-05-01T21:11:20.701Z,19.30
2019-05-01T21:14:15.740Z,19.30
2019-05-01T21:16:32.888Z,19.30
2019-05-01T21:19:01.037Z,19.30
2019-05-01T21:21:30.519Z,19.20
2019-05-01T21:24:01.362Z,19.10
2019-05-01T21:26:30.731Z,19.00
2019-05-01T21:28:59.701Z,19.00
2019-05-01T21:31:34.118Z,19.00
2019-05-01T21:34:04.247Z,18.90
2019-05-01T21:36:33.372Z,18.90
2019-05-01T21:39:02.552Z,18.80
2019-05-01T21:41:33.119Z,18.90
2019-05-01T21:44:03.470Z,18.80
2019-05-01T21:46:34.043Z,18.80
2019-05-01T21:49:03.518Z,18.80
2019-05-01T21:51:37.152Z,18.80
2019-05-01T21:54:05.089Z,18.90
2019-05-01T21:56:36.870Z,19.10
2019-05-01T21:59:08.448Z,19.20
2019-05-01T22:01:36.431Z,19.20
2019-05-01T22:04:06.148Z,18.90
2019-05-01T22:06:35.033Z,18.90
2019-05-01T22:09:10.542Z,18.80
2019-05-01T22:11:38.883Z,18.80
2019-05-01T22:14:10.512Z,18.80
2019-05-01T22:16:39.447Z,18.60
2019-05-01T22:19:12.606Z,18.50
2019-05-01T22:21:58.881Z,18.50
2019-05-01T22:24:40.338Z,18.60
2019-05-01T22:27:10.877Z,18.60
2019-05-01T22:29:44.166Z,18.40
2019-05-01T22:32:23.471Z,18.30
2019-05-01T22:35:09.667Z,18.00
2019-05-01T22:37:38.609Z,17.90
2019-05-01T22:40:09.427Z,17.80
2019-05-01T22:42:38.379Z,17.80
2019-05-01T22:45:09.372Z,17.90
2019-05-01T22:47:38.201Z,18.00
2019-05-01T22:50:11.412Z,18.00
2019-05-01T22:52:40.355Z,18.00
2019-05-01T22:55:09.377Z,17.80
2019-05-01T22:57:38.282Z,17.80
2019-05-01T23:00:11.112Z,17.70
2019-05-01T23:02:42.592Z,17.70
2019-05-01T23:05:11.695Z,17.70
2019-05-01T23:07:40.637Z,17.80
2019-05-01T23:10:10.069Z,17.80
2019-05-01T23:12:40.095Z,17.90
2019-05-01T23:15:11.398Z,17.90
2019-05-01T23:17:47.173Z,17.70
2019-05-01T23:20:16.785Z,17.60
2019-05-01T23:22:45.770Z,17.70
2019-05-01T23:25:14.890Z,17.50
2019-05-01T23:27:43.768Z,17.60
2019-05-01T23:30:15.176Z,17.60
2019-05-01T23:32:44.201Z,17.70
2019-05-01T23:35:13.312Z,17.50
2019-05-01T23:37:42.254Z,17.40
2019-05-01T23:40:15.579Z,17.40
2019-05-01T23:42:43.356Z,17.40
2019-05-01T23:45:13.244Z,17.50
2019-05-01T23:47:43.823Z,17.50
2019-05-01T23:50:13.254Z,17.40
2019-05-01T23:52:42.147Z,17.40
2019-05-01T23:55:11.290Z,17.40
2019-05-01T23:57:40.213Z,17.40
